sensor_id;sensor_type;location;lat;lon;timestamp;temperature;humidity
47660;DHT22;33403;43.608;1.458;2023-04-24T00:01:55;12.30;99.90
47660;DHT22;33403;43.608;1.458;2023-04-24T00:04:21;12.30;99.90
47660;DHT22;33403;43.608;1.458;2023-04-24T00:06:47;12.40;99.90
47660;DHT22;33403;43.608;1.458;2023-04-24T00:09:19;12.40;99.90
47660;DHT22;33403;43.608;1.458;2023-04-24T00:11:45;12.40;99.90
47660;DHT22;33403;43.608;1.458;2023-04-24T00:14:10;12.40;99.90
47660;DHT22;33403;43.608;1.458;2023-04-24T00:16:36;12.30;99.90
47660;DHT22;33403;43.608;1.458;2023-04-24T00:19:02;12.30;99.90
47660;DHT22;33403;43.608;1.458;2023-04-24T00:21:27;12.20;99.90
47660;DHT22;33403;43.608;1.458;2023-04-24T00:23:53;12.20;99.90
47660;DHT22;33403;43.608;1.458;2023-04-24T00:26:18;12.30;99.90
47660;DHT22;33403;43.608;1.458;2023-04-24T00:28:44;12.30;99.90
47660;DHT22;33403;43.608;1.458;2023-04-24T00:31:10;12.30;99.90
47660;DHT22;33403;43.608;1.458;2023-04-24T00:33:36;12.30;99.90
47660;DHT22;33403;43.608;1.458;2023-04-24T00:36:01;12.30;99.90
47660;DHT22;33403;43.608;1.458;2023-04-24T00:38:27;12.30;99.90
47660;DHT22;33403;43.608;1.458;2023-04-24T00:40:53;12.20;99.90
47660;DHT22;33403;43.608;1.458;2023-04-24T00:43:19;12.20;99.90
47660;DHT22;33403;43.608;1.458;2023-04-24T00:45:45;12.20;99.90
47660;DHT22;33403;43.608;1.458;2023-04-24T00:48:11;12.20;99.90
47660;DHT22;33403;43.608;1.458;2023-04-24T00:50:38;12.10;99.90
47660;DHT22;33403;43.608;1.458;2023-04-24T00:53:04;12.10;99.90
47660;DHT22;33403;43.608;1.458;2023-04-24T00:55:30;12.10;99.90
47660;DHT22;33403;43.608;1.458;2023-04-24T00:57:55;12.00;99.90
47660;DHT22;33403;43.608;1.458;2023-04-24T01:00:21;12.00;99.90
47660;DHT22;33403;43.608;1.458;2023-04-24T01:02:48;12.00;99.90
47660;DHT22;33403;43.608;1.458;2023-04-24T01:05:15;12.00;99.90
47660;DHT22;33403;43.608;1.458;2023-04-24T01:07:45;12.00;99.90
47660;DHT22;33403;43.608;1.458;2023-04-24T01:10:13;11.90;99.90
47660;DHT22;33403;43.608;1.458;2023-04-24T01:12:39;11.90;99.90
47660;DHT22;33403;43.608;1.458;2023-04-24T01:15:05;11.90;99.90
47660;DHT22;33403;43.608;1.458;2023-04-24T01:17:34;11.90;99.90
47660;DHT22;33403;43.608;1.458;2023-04-24T01:20:00;11.90;99.90
47660;DHT22;33403;43.608;1.458;2023-04-24T01:22:26;11.80;99.90
47660;DHT22;33403;43.608;1.458;2023-04-24T01:24:52;11.80;99.90
47660;DHT22;33403;43.608;1.458;2023-04-24T01:27:19;11.80;99.90
47660;DHT22;33403;43.608;1.458;2023-04-24T01:29:45;11.90;99.90
47660;DHT22;33403;43.608;1.458;2023-04-24T01:32:11;11.90;99.90
47660;DHT22;33403;43.608;1.458;2023-04-24T01:34:37;11.90;99.90
47660;DHT22;33403;43.608;1.458;2023-04-24T01:37:03;11.90;99.90
47660;DHT22;33403;43.608;1.458;2023-04-24T01:39:30;12.00;99.90
47660;DHT22;33403;43.608;1.458;2023-04-24T01:41:56;12.00;99.90
47660;DHT22;33403;43.608;1.458;2023-04-24T01:44:22;11.90;99.90
47660;DHT22;33403;43.608;1.458;2023-04-24T01:46:48;11.90;99.90
47660;DHT22;33403;43.608;1.458;2023-04-24T01:49:14;12.00;99.90
47660;DHT22;33403;43.608;1.458;2023-04-24T01:51:39;12.00;99.90
47660;DHT22;33403;43.608;1.458;2023-04-24T01:54:05;12.10;99.90
47660;DHT22;33403;43.608;1.458;2023-04-24T01:56:33;12.10;99.90
47660;DHT22;33403;43.608;1.458;2023-04-24T01:59:00;12.10;99.90
47660;DHT22;33403;43.608;1.458;2023-04-24T02:01:26;12.10;99.90
47660;DHT22;33403;43.608;1.458;2023-04-24T02:03:51;12.10;99.90
47660;DHT22;33403;43.608;1.458;2023-04-24T02:06:17;12.00;99.90
47660;DHT22;33403;43.608;1.458;2023-04-24T02:08:43;12.10;99.90
47660;DHT22;33403;43.608;1.458;2023-04-24T02:11:09;12.00;99.90
47660;DHT22;33403;43.608;1.458;2023-04-24T02:13:35;12.00;99.90
47660;DHT22;33403;43.608;1.458;2023-04-24T02:16:01;12.00;99.90
47660;DHT22;33403;43.608;1.458;2023-04-24T02:18:26;12.00;99.90
47660;DHT22;33403;43.608;1.458;2023-04-24T02:20:52;12.00;99.90
47660;DHT22;33403;43.608;1.458;2023-04-24T02:23:18;12.00;99.90
47660;DHT22;33403;43.608;1.458;2023-04-24T02:25:44;12.00;99.90
47660;DHT22;33403;43.608;1.458;2023-04-24T02:28:09;12.00;99.90
47660;DHT22;33403;43.608;1.458;2023-04-24T02:30:35;11.90;99.90
47660;DHT22;33403;43.608;1.458;2023-04-24T02:33:00;11.90;99.90
47660;DHT22;33403;43.608;1.458;2023-04-24T02:35:26;11.80;99.90
47660;DHT22;33403;43.608;1.458;2023-04-24T02:37:52;11.80;99.90
47660;DHT22;33403;43.608;1.458;2023-04-24T02:40:17;11.80;99.90
47660;DHT22;33403;43.608;1.458;2023-04-24T02:42:43;11.80;99.90
47660;DHT22;33403;43.608;1.458;2023-04-24T02:45:09;11.90;99.90
47660;DHT22;33403;43.608;1.458;2023-04-24T02:47:35;11.90;99.90
47660;DHT22;33403;43.608;1.458;2023-04-24T02:50:02;12.00;99.90
47660;DHT22;33403;43.608;1.458;2023-04-24T02:52:28;12.00;99.90
47660;DHT22;33403;43.608;1.458;2023-04-24T02:54:54;12.00;99.90
47660;DHT22;33403;43.608;1.458;2023-04-24T02:57:19;12.10;99.90
47660;DHT22;33403;43.608;1.458;2023-04-24T02:59:45;12.10;99.90
47660;DHT22;33403;43.608;1.458;2023-04-24T03:02:11;12.10;99.90
47660;DHT22;33403;43.608;1.458;2023-04-24T03:04:36;12.10;99.90
47660;DHT22;33403;43.608;1.458;2023-04-24T03:07:02;12.10;99.90
47660;DHT22;33403;43.608;1.458;2023-04-24T03:09:28;12.10;99.90
47660;DHT22;33403;43.608;1.458;2023-04-24T03:11:53;12.20;99.90
47660;DHT22;33403;43.608;1.458;2023-04-24T03:14:19;12.20;99.90
47660;DHT22;33403;43.608;1.458;2023-04-24T03:16:44;12.10;99.90
47660;DHT22;33403;43.608;1.458;2023-04-24T03:19:10;12.10;99.90
47660;DHT22;33403;43.608;1.458;2023-04-24T03:21:36;12.10;99.90
47660;DHT22;33403;43.608;1.458;2023-04-24T03:24:08;12.20;99.90
47660;DHT22;33403;43.608;1.458;2023-04-24T03:26:35;12.20;99.90
47660;DHT22;33403;43.608;1.458;2023-04-24T03:29:00;12.20;99.90
47660;DHT22;33403;43.608;1.458;2023-04-24T03:31:26;12.20;99.90
47660;DHT22;33403;43.608;1.458;2023-04-24T03:33:52;12.20;99.90
47660;DHT22;33403;43.608;1.458;2023-04-24T03:36:17;12.20;99.90
47660;DHT22;33403;43.608;1.458;2023-04-24T03:38:44;12.20;99.90
47660;DHT22;33403;43.608;1.458;2023-04-24T03:41:10;12.20;99.90
47660;DHT22;33403;43.608;1.458;2023-04-24T03:43:37;12.10;99.90
47660;DHT22;33403;43.608;1.458;2023-04-24T03:46:03;12.00;99.90
47660;DHT22;33403;43.608;1.458;2023-04-24T03:48:29;11.90;99.90
47660;DHT22;33403;43.608;1.458;2023-04-24T03:50:55;11.90;99.90
47660;DHT22;33403;43.608;1.458;2023-04-24T03:53:20;11.90;99.90
47660;DHT22;33403;43.608;1.458;2023-04-24T03:55:46;11.90;99.90
47660;DHT22;33403;43.608;1.458;2023-04-24T03:58:12;12.00;99.90
47660;DHT22;33403;43.608;1.458;2023-04-24T04:00:39;12.00;99.90
47660;DHT22;33403;43.608;1.458;2023-04-24T04:03:06;12.00;99.90
47660;DHT22;33403;43.608;1.458;2023-04-24T04:05:31;12.10;99.90
47660;DHT22;33403;43.608;1.458;2023-04-24T04:07:57;12.10;99.90
47660;DHT22;33403;43.608;1.458;2023-04-24T04:10:23;12.10;99.90
47660;DHT22;33403;43.608;1.458;2023-04-24T04:12:48;12.10;99.90
47660;DHT22;33403;43.608;1.458;2023-04-24T04:15:14;12.10;99.90
47660;DHT22;33403;43.608;1.458;2023-04-24T04:17:40;12.00;99.90
47660;DHT22;33403;43.608;1.458;2023-04-24T04:20:06;12.10;99.90
47660;DHT22;33403;43.608;1.458;2023-04-24T04:22:37;12.10;99.90
47660;DHT22;33403;43.608;1.458;2023-04-24T04:25:04;12.10;99.90
47660;DHT22;33403;43.608;1.458;2023-04-24T04:27:30;12.10;99.90
47660;DHT22;33403;43.608;1.458;2023-04-24T04:30:01;12.10;99.90
47660;DHT22;33403;43.608;1.458;2023-04-24T04:32:33;12.00;99.90
47660;DHT22;33403;43.608;1.458;2023-04-24T04:35:00;12.00;99.90
47660;DHT22;33403;43.608;1.458;2023-04-24T04:37:29;11.90;99.90
47660;DHT22;33403;43.608;1.458;2023-04-24T04:39:56;11.80;99.90
47660;DHT22;33403;43.608;1.458;2023-04-24T04:42:24;11.70;99.90
47660;DHT22;33403;43.608;1.458;2023-04-24T04:44:49;11.70;99.90
47660;DHT22;33403;43.608;1.458;2023-04-24T04:47:16;11.70;99.90
47660;DHT22;33403;43.608;1.458;2023-04-24T04:49:43;11.60;99.90
47660;DHT22;33403;43.608;1.458;2023-04-24T04:52:09;11.50;99.90
47660;DHT22;33403;43.608;1.458;2023-04-24T04:54:35;11.50;99.90
47660;DHT22;33403;43.608;1.458;2023-04-24T04:57:00;11.60;99.90
47660;DHT22;33403;43.608;1.458;2023-04-24T04:59:27;11.60;99.90
47660;DHT22;33403;43.608;1.458;2023-04-24T05:01:53;11.70;99.90
47660;DHT22;33403;43.608;1.458;2023-04-24T05:04:18;11.70;99.90
47660;DHT22;33403;43.608;1.458;2023-04-24T05:06:44;11.70;99.90
47660;DHT22;33403;43.608;1.458;2023-04-24T05:09:10;11.70;99.90
47660;DHT22;33403;43.608;1.458;2023-04-24T05:11:35;11.80;99.90
47660;DHT22;33403;43.608;1.458;2023-04-24T05:14:01;11.80;99.90
47660;DHT22;33403;43.608;1.458;2023-04-24T05:16:27;11.90;99.90
47660;DHT22;33403;43.608;1.458;2023-04-24T05:18:52;11.90;99.90
47660;DHT22;33403;43.608;1.458;2023-04-24T05:21:18;11.90;99.90
47660;DHT22;33403;43.608;1.458;2023-04-24T05:23:43;12.00;99.90
47660;DHT22;33403;43.608;1.458;2023-04-24T05:26:09;11.90;99.90
47660;DHT22;33403;43.608;1.458;2023-04-24T05:28:35;12.00;99.90
47660;DHT22;33403;43.608;1.458;2023-04-24T05:31:02;12.00;99.90
47660;DHT22;33403;43.608;1.458;2023-04-24T05:33:28;12.00;99.90
47660;DHT22;33403;43.608;1.458;2023-04-24T05:35:54;12.10;99.90
47660;DHT22;33403;43.608;1.458;2023-04-24T05:38:20;12.10;99.90
47660;DHT22;33403;43.608;1.458;2023-04-24T05:40:46;12.20;99.90
47660;DHT22;33403;43.608;1.458;2023-04-24T05:43:12;12.20;99.90
47660;DHT22;33403;43.608;1.458;2023-04-24T05:45:38;12.20;99.90
47660;DHT22;33403;43.608;1.458;2023-04-24T05:48:04;12.20;99.90
47660;DHT22;33403;43.608;1.458;2023-04-24T05:50:31;12.20;99.90
47660;DHT22;33403;43.608;1.458;2023-04-24T05:52:56;12.30;99.90
47660;DHT22;33403;43.608;1.458;2023-04-24T05:55:27;12.20;99.90
47660;DHT22;33403;43.608;1.458;2023-04-24T05:57:52;12.20;99.90
47660;DHT22;33403;43.608;1.458;2023-04-24T06:00:18;12.30;99.90
47660;DHT22;33403;43.608;1.458;2023-04-24T06:02:45;12.30;99.90
47660;DHT22;33403;43.608;1.458;2023-04-24T06:05:11;12.40;99.90
47660;DHT22;33403;43.608;1.458;2023-04-24T06:07:37;12.50;99.90
47660;DHT22;33403;43.608;1.458;2023-04-24T06:10:03;12.60;99.90
47660;DHT22;33403;43.608;1.458;2023-04-24T06:12:28;12.60;99.90
47660;DHT22;33403;43.608;1.458;2023-04-24T06:14:54;12.60;99.90
47660;DHT22;33403;43.608;1.458;2023-04-24T06:17:21;12.70;99.90
47660;DHT22;33403;43.608;1.458;2023-04-24T06:19:46;12.70;99.90
47660;DHT22;33403;43.608;1.458;2023-04-24T06:22:12;12.70;99.90
47660;DHT22;33403;43.608;1.458;2023-04-24T06:24:39;12.70;99.90
47660;DHT22;33403;43.608;1.458;2023-04-24T06:27:05;12.80;99.90
47660;DHT22;33403;43.608;1.458;2023-04-24T06:29:32;12.80;99.90
47660;DHT22;33403;43.608;1.458;2023-04-24T06:31:58;12.80;99.90
47660;DHT22;33403;43.608;1.458;2023-04-24T06:34:24;12.80;99.90
47660;DHT22;33403;43.608;1.458;2023-04-24T06:36:50;12.80;99.90
47660;DHT22;33403;43.608;1.458;2023-04-24T06:39:16;12.80;99.90
47660;DHT22;33403;43.608;1.458;2023-04-24T06:41:41;12.80;99.90
47660;DHT22;33403;43.608;1.458;2023-04-24T06:44:07;12.80;99.90
47660;DHT22;33403;43.608;1.458;2023-04-24T06:46:32;12.90;99.90
47660;DHT22;33403;43.608;1.458;2023-04-24T06:48:58;12.90;99.90
47660;DHT22;33403;43.608;1.458;2023-04-24T06:51:25;12.90;99.90
47660;DHT22;33403;43.608;1.458;2023-04-24T06:53:54;13.00;99.90
47660;DHT22;33403;43.608;1.458;2023-04-24T06:56:21;12.90;99.90
47660;DHT22;33403;43.608;1.458;2023-04-24T06:58:48;12.90;99.90
47660;DHT22;33403;43.608;1.458;2023-04-24T07:01:13;12.90;99.90
47660;DHT22;33403;43.608;1.458;2023-04-24T07:03:39;12.90;99.90
47660;DHT22;33403;43.608;1.458;2023-04-24T07:06:05;13.00;99.90
47660;DHT22;33403;43.608;1.458;2023-04-24T07:08:31;12.90;99.90
47660;DHT22;33403;43.608;1.458;2023-04-24T07:10:58;12.90;99.90
47660;DHT22;33403;43.608;1.458;2023-04-24T07:13:24;13.00;99.90
47660;DHT22;33403;43.608;1.458;2023-04-24T07:15:50;13.00;99.90
47660;DHT22;33403;43.608;1.458;2023-04-24T07:18:18;13.00;99.90
47660;DHT22;33403;43.608;1.458;2023-04-24T07:20:44;13.00;99.90
47660;DHT22;33403;43.608;1.458;2023-04-24T07:23:10;13.10;99.90
47660;DHT22;33403;43.608;1.458;2023-04-24T07:25:35;13.00;99.90
47660;DHT22;33403;43.608;1.458;2023-04-24T07:28:01;12.90;99.90
47660;DHT22;33403;43.608;1.458;2023-04-24T07:30:27;12.90;99.90
47660;DHT22;33403;43.608;1.458;2023-04-24T07:32:54;12.90;99.90
47660;DHT22;33403;43.608;1.458;2023-04-24T07:35:21;12.90;99.90
47660;DHT22;33403;43.608;1.458;2023-04-24T07:37:46;13.00;99.90
47660;DHT22;33403;43.608;1.458;2023-04-24T07:40:13;13.10;99.90
47660;DHT22;33403;43.608;1.458;2023-04-24T07:42:39;13.20;99.90
47660;DHT22;33403;43.608;1.458;2023-04-24T07:45:05;13.30;99.90
47660;DHT22;33403;43.608;1.458;2023-04-24T07:47:32;13.50;99.90
47660;DHT22;33403;43.608;1.458;2023-04-24T07:49:58;13.50;99.90
47660;DHT22;33403;43.608;1.458;2023-04-24T07:52:24;13.50;99.90
47660;DHT22;33403;43.608;1.458;2023-04-24T07:54:49;13.50;99.90
47660;DHT22;33403;43.608;1.458;2023-04-24T07:57:16;13.50;99.90
47660;DHT22;33403;43.608;1.458;2023-04-24T07:59:41;13.50;99.90
47660;DHT22;33403;43.608;1.458;2023-04-24T08:02:07;13.60;99.90
47660;DHT22;33403;43.608;1.458;2023-04-24T08:04:33;13.80;99.90
47660;DHT22;33403;43.608;1.458;2023-04-24T08:06:59;13.90;99.90
47660;DHT22;33403;43.608;1.458;2023-04-24T08:09:24;13.90;99.90
47660;DHT22;33403;43.608;1.458;2023-04-24T08:11:50;13.90;99.90
47660;DHT22;33403;43.608;1.458;2023-04-24T08:14:16;14.00;99.90
47660;DHT22;33403;43.608;1.458;2023-04-24T08:16:41;14.00;99.90
47660;DHT22;33403;43.608;1.458;2023-04-24T08:19:07;14.00;99.90
47660;DHT22;33403;43.608;1.458;2023-04-24T08:21:33;14.20;99.90
47660;DHT22;33403;43.608;1.458;2023-04-24T08:23:59;14.20;99.90
47660;DHT22;33403;43.608;1.458;2023-04-24T08:26:24;14.10;99.90
47660;DHT22;33403;43.608;1.458;2023-04-24T08:28:50;14.10;99.90
47660;DHT22;33403;43.608;1.458;2023-04-24T08:31:16;14.30;99.90
47660;DHT22;33403;43.608;1.458;2023-04-24T08:33:41;14.50;99.90
47660;DHT22;33403;43.608;1.458;2023-04-24T08:36:10;14.60;99.90
47660;DHT22;33403;43.608;1.458;2023-04-24T08:38:36;14.70;99.90
47660;DHT22;33403;43.608;1.458;2023-04-24T08:41:01;14.70;99.90
47660;DHT22;33403;43.608;1.458;2023-04-24T08:43:27;14.70;99.90
47660;DHT22;33403;43.608;1.458;2023-04-24T08:45:55;14.60;99.90
47660;DHT22;33403;43.608;1.458;2023-04-24T08:48:22;14.70;99.90
47660;DHT22;33403;43.608;1.458;2023-04-24T08:50:50;14.60;99.90
47660;DHT22;33403;43.608;1.458;2023-04-24T08:53:16;14.60;99.90
47660;DHT22;33403;43.608;1.458;2023-04-24T08:55:43;14.60;99.90
47660;DHT22;33403;43.608;1.458;2023-04-24T08:58:12;14.70;99.90
47660;DHT22;33403;43.608;1.458;2023-04-24T09:00:39;14.80;99.90
47660;DHT22;33403;43.608;1.458;2023-04-24T09:03:05;14.90;99.90
47660;DHT22;33403;43.608;1.458;2023-04-24T09:05:32;15.00;99.90
47660;DHT22;33403;43.608;1.458;2023-04-24T09:07:59;15.10;99.90
47660;DHT22;33403;43.608;1.458;2023-04-24T09:10:27;15.20;99.90
47660;DHT22;33403;43.608;1.458;2023-04-24T09:12:56;15.00;99.90
47660;DHT22;33403;43.608;1.458;2023-04-24T09:15:24;15.00;99.90
47660;DHT22;33403;43.608;1.458;2023-04-24T09:17:50;14.60;99.90
47660;DHT22;33403;43.608;1.458;2023-04-24T09:20:16;14.40;99.90
47660;DHT22;33403;43.608;1.458;2023-04-24T09:22:42;14.40;99.90
47660;DHT22;33403;43.608;1.458;2023-04-24T09:25:10;14.60;99.90
47660;DHT22;33403;43.608;1.458;2023-04-24T09:27:42;14.80;99.90
47660;DHT22;33403;43.608;1.458;2023-04-24T09:30:09;14.80;99.90
47660;DHT22;33403;43.608;1.458;2023-04-24T09:32:35;14.90;99.90
47660;DHT22;33403;43.608;1.458;2023-04-24T09:35:14;14.70;99.90
47660;DHT22;33403;43.608;1.458;2023-04-24T09:37:45;14.80;99.90
47660;DHT22;33403;43.608;1.458;2023-04-24T09:40:19;14.80;99.90
47660;DHT22;33403;43.608;1.458;2023-04-24T09:42:55;14.80;99.90
47660;DHT22;33403;43.608;1.458;2023-04-24T09:45:37;14.90;99.90
47660;DHT22;33403;43.608;1.458;2023-04-24T09:48:03;15.20;99.90
47660;DHT22;33403;43.608;1.458;2023-04-24T09:50:30;15.40;99.90
47660;DHT22;33403;43.608;1.458;2023-04-24T09:53:04;15.70;99.90
47660;DHT22;33403;43.608;1.458;2023-04-24T09:55:30;15.90;99.90
47660;DHT22;33403;43.608;1.458;2023-04-24T09:57:58;16.00;99.90
47660;DHT22;33403;43.608;1.458;2023-04-24T10:00:30;16.10;99.90
47660;DHT22;33403;43.608;1.458;2023-04-24T10:03:01;16.10;99.90
47660;DHT22;33403;43.608;1.458;2023-04-24T10:08:10;16.00;99.90
47660;DHT22;33403;43.608;1.458;2023-04-24T10:10:43;15.80;99.90
47660;DHT22;33403;43.608;1.458;2023-04-24T10:13:10;15.70;99.90
47660;DHT22;33403;43.608;1.458;2023-04-24T10:15:37;15.70;99.90
47660;DHT22;33403;43.608;1.458;2023-04-24T10:18:04;15.90;99.90
47660;DHT22;33403;43.608;1.458;2023-04-24T10:20:32;16.00;99.90
47660;DHT22;33403;43.608;1.458;2023-04-24T10:22:59;16.10;99.90
47660;DHT22;33403;43.608;1.458;2023-04-24T10:25:27;16.10;99.90
47660;DHT22;33403;43.608;1.458;2023-04-24T10:27:54;16.10;99.90
47660;DHT22;33403;43.608;1.458;2023-04-24T10:30:23;16.20;99.90
47660;DHT22;33403;43.608;1.458;2023-04-24T10:32:48;16.40;99.90
47660;DHT22;33403;43.608;1.458;2023-04-24T10:35:15;16.90;99.90
47660;DHT22;33403;43.608;1.458;2023-04-24T10:37:49;17.10;99.90
47660;DHT22;33403;43.608;1.458;2023-04-24T10:40:18;17.20;99.90
47660;DHT22;33403;43.608;1.458;2023-04-24T10:42:47;17.40;99.90
47660;DHT22;33403;43.608;1.458;2023-04-24T10:45:18;17.50;99.90
47660;DHT22;33403;43.608;1.458;2023-04-24T10:47:58;17.50;99.90
47660;DHT22;33403;43.608;1.458;2023-04-24T10:51:14;17.40;99.90
47660;DHT22;33403;43.608;1.458;2023-04-24T10:53:26;17.20;99.90
47660;DHT22;33403;43.608;1.458;2023-04-24T10:56:07;17.00;99.90
47660;DHT22;33403;43.608;1.458;2023-04-24T11:01:30;16.30;99.90
47660;DHT22;33403;43.608;1.458;2023-04-24T11:03:58;16.10;99.90
47660;DHT22;33403;43.608;1.458;2023-04-24T11:06:37;16.10;99.90
47660;DHT22;33403;43.608;1.458;2023-04-24T11:09:07;16.00;99.90
47660;DHT22;33403;43.608;1.458;2023-04-24T11:11:34;16.00;99.90
47660;DHT22;33403;43.608;1.458;2023-04-24T11:14:01;16.00;99.90
47660;DHT22;33403;43.608;1.458;2023-04-24T11:16:42;16.10;99.90
47660;DHT22;33403;43.608;1.458;2023-04-24T11:21:54;16.00;99.90
47660;DHT22;33403;43.608;1.458;2023-04-24T11:24:25;16.00;99.90
47660;DHT22;33403;43.608;1.458;2023-04-24T11:26:55;15.90;99.90
47660;DHT22;33403;43.608;1.458;2023-04-24T11:29:22;16.00;99.90
47660;DHT22;33403;43.608;1.458;2023-04-24T11:31:49;16.00;99.90
47660;DHT22;33403;43.608;1.458;2023-04-24T11:34:17;15.90;99.90
47660;DHT22;33403;43.608;1.458;2023-04-24T11:36:44;15.80;99.90
47660;DHT22;33403;43.608;1.458;2023-04-24T11:39:12;15.80;99.90
47660;DHT22;33403;43.608;1.458;2023-04-24T11:41:38;15.80;99.90
47660;DHT22;33403;43.608;1.458;2023-04-24T11:44:06;16.00;99.90
47660;DHT22;33403;43.608;1.458;2023-04-24T11:46:32;16.30;99.90
47660;DHT22;33403;43.608;1.458;2023-04-24T11:48:58;16.60;99.90
47660;DHT22;33403;43.608;1.458;2023-04-24T11:51:28;16.70;99.90
47660;DHT22;33403;43.608;1.458;2023-04-24T11:53:55;16.80;99.90
47660;DHT22;33403;43.608;1.458;2023-04-24T11:56:24;16.70;99.90
47660;DHT22;33403;43.608;1.458;2023-04-24T11:58:53;16.70;99.90
47660;DHT22;33403;43.608;1.458;2023-04-24T12:01:20;16.80;99.90
47660;DHT22;33403;43.608;1.458;2023-04-24T12:03:59;16.90;99.90
47660;DHT22;33403;43.608;1.458;2023-04-24T12:06:26;16.90;99.90
47660;DHT22;33403;43.608;1.458;2023-04-24T12:08:52;17.10;99.90
47660;DHT22;33403;43.608;1.458;2023-04-24T12:11:20;17.30;99.90
47660;DHT22;33403;43.608;1.458;2023-04-24T12:13:46;17.40;99.90
47660;DHT22;33403;43.608;1.458;2023-04-24T12:16:11;17.60;99.90
47660;DHT22;33403;43.608;1.458;2023-04-24T12:18:42;17.70;99.90
47660;DHT22;33403;43.608;1.458;2023-04-24T12:21:19;17.80;99.90
47660;DHT22;33403;43.608;1.458;2023-04-24T12:23:45;17.70;99.90
47660;DHT22;33403;43.608;1.458;2023-04-24T12:26:18;17.40;99.90
47660;DHT22;33403;43.608;1.458;2023-04-24T12:28:47;17.00;99.90
47660;DHT22;33403;43.608;1.458;2023-04-24T12:31:17;16.80;99.90
47660;DHT22;33403;43.608;1.458;2023-04-24T12:33:45;16.70;99.90
47660;DHT22;33403;43.608;1.458;2023-04-24T12:36:12;16.80;99.90
47660;DHT22;33403;43.608;1.458;2023-04-24T12:38:38;17.10;99.90
47660;DHT22;33403;43.608;1.458;2023-04-24T12:41:08;17.40;99.90
47660;DHT22;33403;43.608;1.458;2023-04-24T12:43:34;17.50;99.90
47660;DHT22;33403;43.608;1.458;2023-04-24T12:46:00;17.70;99.90
47660;DHT22;33403;43.608;1.458;2023-04-24T12:48:27;17.80;99.90
47660;DHT22;33403;43.608;1.458;2023-04-24T12:50:52;17.80;99.90
47660;DHT22;33403;43.608;1.458;2023-04-24T12:53:18;17.70;99.90
47660;DHT22;33403;43.608;1.458;2023-04-24T12:55:44;17.50;99.90
47660;DHT22;33403;43.608;1.458;2023-04-24T12:58:10;17.50;99.90
47660;DHT22;33403;43.608;1.458;2023-04-24T13:00:36;17.70;99.90
47660;DHT22;33403;43.608;1.458;2023-04-24T13:03:02;17.90;99.90
47660;DHT22;33403;43.608;1.458;2023-04-24T13:05:28;17.90;99.90
47660;DHT22;33403;43.608;1.458;2023-04-24T13:07:54;18.10;99.90
47660;DHT22;33403;43.608;1.458;2023-04-24T13:10:19;18.00;99.90
47660;DHT22;33403;43.608;1.458;2023-04-24T13:12:45;18.10;99.90
47660;DHT22;33403;43.608;1.458;2023-04-24T13:15:11;18.30;99.90
47660;DHT22;33403;43.608;1.458;2023-04-24T13:17:37;18.40;99.90
47660;DHT22;33403;43.608;1.458;2023-04-24T13:20:03;18.40;99.90
47660;DHT22;33403;43.608;1.458;2023-04-24T13:22:29;18.40;99.90
47660;DHT22;33403;43.608;1.458;2023-04-24T13:24:55;18.40;99.90
47660;DHT22;33403;43.608;1.458;2023-04-24T13:27:21;18.30;99.90
47660;DHT22;33403;43.608;1.458;2023-04-24T13:29:47;18.10;99.90
47660;DHT22;33403;43.608;1.458;2023-04-24T13:32:12;18.00;99.90
47660;DHT22;33403;43.608;1.458;2023-04-24T13:34:38;18.10;99.90
47660;DHT22;33403;43.608;1.458;2023-04-24T13:37:05;18.10;99.90
47660;DHT22;33403;43.608;1.458;2023-04-24T13:39:30;18.20;99.90
47660;DHT22;33403;43.608;1.458;2023-04-24T13:41:57;18.30;99.90
47660;DHT22;33403;43.608;1.458;2023-04-24T13:44:23;18.20;99.90
47660;DHT22;33403;43.608;1.458;2023-04-24T13:46:52;18.30;99.90
47660;DHT22;33403;43.608;1.458;2023-04-24T13:49:20;18.30;99.90
47660;DHT22;33403;43.608;1.458;2023-04-24T13:51:46;18.20;99.90
47660;DHT22;33403;43.608;1.458;2023-04-24T13:54:11;18.20;99.90
47660;DHT22;33403;43.608;1.458;2023-04-24T13:56:38;18.20;99.90
47660;DHT22;33403;43.608;1.458;2023-04-24T13:59:04;18.10;99.90
47660;DHT22;33403;43.608;1.458;2023-04-24T14:01:30;18.20;99.90
47660;DHT22;33403;43.608;1.458;2023-04-24T14:03:56;18.20;99.90
47660;DHT22;33403;43.608;1.458;2023-04-24T14:06:22;18.20;99.90
47660;DHT22;33403;43.608;1.458;2023-04-24T14:08:49;18.30;99.90
47660;DHT22;33403;43.608;1.458;2023-04-24T14:11:16;18.30;99.90
47660;DHT22;33403;43.608;1.458;2023-04-24T14:13:42;18.30;99.90
47660;DHT22;33403;43.608;1.458;2023-04-24T14:16:08;18.20;99.90
47660;DHT22;33403;43.608;1.458;2023-04-24T14:18:34;18.30;99.90
47660;DHT22;33403;43.608;1.458;2023-04-24T14:21:00;18.40;99.90
47660;DHT22;33403;43.608;1.458;2023-04-24T14:23:27;18.40;99.90
47660;DHT22;33403;43.608;1.458;2023-04-24T14:25:52;18.40;99.90
47660;DHT22;33403;43.608;1.458;2023-04-24T14:28:19;18.50;99.90
47660;DHT22;33403;43.608;1.458;2023-04-24T14:30:46;18.40;99.90
47660;DHT22;33403;43.608;1.458;2023-04-24T14:33:12;18.30;99.90
47660;DHT22;33403;43.608;1.458;2023-04-24T14:35:39;18.40;99.90
47660;DHT22;33403;43.608;1.458;2023-04-24T14:38:05;18.40;99.90
47660;DHT22;33403;43.608;1.458;2023-04-24T14:40:31;18.40;99.90
47660;DHT22;33403;43.608;1.458;2023-04-24T14:42:58;18.40;99.90
47660;DHT22;33403;43.608;1.458;2023-04-24T14:45:27;18.40;99.90
47660;DHT22;33403;43.608;1.458;2023-04-24T14:47:52;18.40;99.90
47660;DHT22;33403;43.608;1.458;2023-04-24T14:50:18;18.40;99.90
47660;DHT22;33403;43.608;1.458;2023-04-24T14:52:44;18.30;99.90
47660;DHT22;33403;43.608;1.458;2023-04-24T14:55:10;18.30;99.90
47660;DHT22;33403;43.608;1.458;2023-04-24T14:57:36;18.30;99.90
47660;DHT22;33403;43.608;1.458;2023-04-24T15:00:06;18.20;99.90
47660;DHT22;33403;43.608;1.458;2023-04-24T15:02:34;18.20;99.90
47660;DHT22;33403;43.608;1.458;2023-04-24T15:04:59;18.20;99.90
47660;DHT22;33403;43.608;1.458;2023-04-24T15:07:25;18.10;99.90
47660;DHT22;33403;43.608;1.458;2023-04-24T15:09:51;17.90;99.90
47660;DHT22;33403;43.608;1.458;2023-04-24T15:12:17;17.90;99.90
47660;DHT22;33403;43.608;1.458;2023-04-24T15:14:42;17.90;99.90
47660;DHT22;33403;43.608;1.458;2023-04-24T15:17:08;17.90;99.90
47660;DHT22;33403;43.608;1.458;2023-04-24T15:19:34;18.00;99.90
47660;DHT22;33403;43.608;1.458;2023-04-24T15:21:59;18.00;99.90
47660;DHT22;33403;43.608;1.458;2023-04-24T15:24:25;17.80;99.90
47660;DHT22;33403;43.608;1.458;2023-04-24T15:26:51;17.90;99.90
47660;DHT22;33403;43.608;1.458;2023-04-24T15:29:17;17.90;99.90
47660;DHT22;33403;43.608;1.458;2023-04-24T15:31:42;17.90;99.90
47660;DHT22;33403;43.608;1.458;2023-04-24T15:34:08;18.00;99.90
47660;DHT22;33403;43.608;1.458;2023-04-24T15:36:34;18.10;99.90